Time;durP1;ratioP1;P1;durP2;ratioP2;P2;SDS_P1;SDS_P2;PMS_P1;PMS_P2;Temp;Humidity;BMP_temperature;BMP_pressure;BME280_temperature;BME280_humidity;BME280_pressure;Samples;Min_cycle;Max_cycle;Signal;HPM_P1;HPM_P2
2024/04/11 00:00:36;;;;;;;8.73;4.13;;;10.40;99.90;;;;;;5439173;26;20018;-70
2024/04/11 00:03:01;;;;;;;9.88;3.85;;;10.40;99.90;;;;;;5439291;26;20354;-69
2024/04/11 00:05:27;;;;;;;9.40;3.72;;;10.40;99.90;;;;;;5433212;26;20010;-69
2024/04/11 00:07:53;;;;;;;8.55;4.03;;;10.50;99.90;;;;;;5431336;26;20003;-69
2024/04/11 00:10:19;;;;;;;8.77;4.15;;;10.40;99.90;;;;;;5437342;26;19999;-69
2024/04/11 00:12:46;;;;;;;9.05;3.75;;;10.40;99.90;;;;;;5426545;26;20080;-68
2024/04/11 00:15:11;;;;;;;9.98;4.00;;;10.40;99.90;;;;;;5429377;26;20010;-68
2024/04/11 00:17:37;;;;;;;9.65;3.80;;;10.40;99.90;;;;;;5428276;26;20010;-69
2024/04/11 00:20:03;;;;;;;8.05;3.88;;;10.40;99.90;;;;;;5436104;26;20022;-69
2024/04/11 00:22:29;;;;;;;9.75;3.65;;;10.40;99.90;;;;;;5435768;26;20343;-69
2024/04/11 00:24:55;;;;;;;8.63;4.20;;;10.50;99.90;;;;;;5432141;26;20051;-69
2024/04/11 00:27:22;;;;;;;12.23;4.35;;;10.50;99.90;;;;;;5425254;26;20018;-68
2024/04/11 00:29:48;;;;;;;9.25;4.20;;;10.40;99.90;;;;;;5429574;26;19999;-69
2024/04/11 00:32:13;;;;;;;8.75;4.05;;;10.40;99.90;;;;;;5437218;26;20014;-69
2024/04/11 00:34:43;;;;;;;10.82;3.95;;;10.40;99.90;;;;;;5427906;26;19998;-68
2024/04/11 00:37:11;;;;;;;9.05;4.13;;;10.50;99.90;;;;;;5431066;26;20370;-68
2024/04/11 00:39:37;;;;;;;10.73;3.72;;;10.50;99.90;;;;;;5439390;26;20017;-68
2024/04/11 00:42:04;;;;;;;8.43;3.80;;;10.50;99.90;;;;;;5437902;26;20019;-69
2024/04/11 00:44:32;;;;;;;8.02;3.88;;;10.50;99.90;;;;;;5435843;26;20013;-69
2024/04/11 00:46:58;;;;;;;9.05;3.90;;;10.50;99.90;;;;;;5428366;26;20015;-70
2024/04/11 00:49:24;;;;;;;7.47;3.55;;;10.50;99.90;;;;;;5431911;26;19999;-68
2024/04/11 00:51:52;;;;;;;8.70;3.65;;;10.50;99.90;;;;;;5424055;26;20412;-69
2024/04/11 00:54:19;;;;;;;9.55;3.78;;;10.50;99.90;;;;;;5429205;26;20018;-69
2024/04/11 00:56:46;;;;;;;7.32;4.30;;;10.50;99.90;;;;;;5431993;26;20000;-69
2024/04/11 00:59:14;;;;;;;7.78;3.90;;;10.50;99.90;;;;;;5435750;26;20080;-70
2024/04/11 01:01:41;;;;;;;8.13;3.80;;;10.50;99.90;;;;;;5444887;26;20498;-68
2024/04/11 01:04:07;;;;;;;10.13;4.07;;;10.50;99.90;;;;;;5435587;26;20003;-70
2024/04/11 01:09:28;;;;;;;9.20;3.92;;;10.50;99.90;;;;;;5427060;26;20014;-69
2024/04/11 01:11:54;;;;;;;11.35;4.03;;;10.50;99.90;;;;;;5432261;26;19999;-68
2024/04/11 01:14:20;;;;;;;10.70;3.85;;;10.50;99.90;;;;;;5428315;26;20000;-69
2024/04/11 01:16:45;;;;;;;10.35;4.05;;;10.50;99.90;;;;;;5426809;26;19999;-68
2024/04/11 01:19:11;;;;;;;9.52;3.78;;;10.60;99.90;;;;;;5434245;26;20002;-69
2024/04/11 01:21:37;;;;;;;9.07;3.88;;;10.50;99.90;;;;;;5427837;26;20463;-71
2024/04/11 01:24:03;;;;;;;7.95;3.70;;;10.50;99.90;;;;;;5402498;26;20014;-69
2024/04/11 01:26:30;;;;;;;12.30;4.10;;;10.60;99.90;;;;;;5425408;26;20072;-70
2024/04/11 01:28:55;;;;;;;7.60;3.53;;;10.60;99.90;;;;;;5430540;26;20003;-69
2024/04/11 01:31:21;;;;;;;10.63;4.00;;;10.60;99.90;;;;;;5440030;26;20014;-71
2024/04/11 01:33:47;;;;;;;9.73;3.65;;;10.60;99.90;;;;;;5425579;26;20017;-69
2024/04/11 01:36:16;;;;;;;9.95;3.90;;;10.60;99.90;;;;;;5424929;26;20347;-68
2024/04/11 01:38:45;;;;;;;10.20;3.85;;;10.60;99.90;;;;;;5426522;26;20383;-69
2024/04/11 01:41:11;;;;;;;10.02;3.88;;;10.60;99.90;;;;;;5426833;26;20559;-69
2024/04/11 01:43:36;;;;;;;7.43;3.60;;;10.60;99.90;;;;;;5431057;26;20010;-69
2024/04/11 01:46:02;;;;;;;8.25;3.45;;;10.60;99.90;;;;;;5421135;26;20468;-69
2024/04/11 01:48:28;;;;;;;7.78;3.42;;;10.60;99.90;;;;;;5436991;26;20455;-69
2024/04/11 01:50:54;;;;;;;9.05;3.45;;;10.60;99.90;;;;;;5431632;26;20424;-69
2024/04/11 01:53:20;;;;;;;8.18;3.15;;;10.60;99.90;;;;;;5393741;26;20080;-68
2024/04/11 01:55:47;;;;;;;8.52;3.42;;;10.60;99.90;;;;;;5424175;26;20010;-69
2024/04/11 01:58:17;;;;;;;9.00;2.90;;;10.60;99.90;;;;;;5427317;26;19999;-69
2024/04/11 02:00:47;;;;;;;12.50;3.40;;;10.60;99.90;;;;;;5420506;26;20003;-69
2024/04/11 02:03:13;;;;;;;9.77;3.60;;;10.70;99.90;;;;;;5427553;26;20013;-69
2024/04/11 02:05:41;;;;;;;9.27;3.33;;;10.60;99.90;;;;;;5435201;26;20332;-70
2024/04/11 02:08:08;;;;;;;7.18;2.80;;;10.70;99.90;;;;;;5426939;26;20000;-69
2024/04/11 02:10:35;;;;;;;8.85;3.35;;;10.70;99.90;;;;;;5422429;26;20347;-68
2024/04/11 02:13:01;;;;;;;8.70;2.92;;;10.70;99.90;;;;;;5434986;26;20007;-69
2024/04/11 02:15:27;;;;;;;12.60;3.20;;;10.70;99.90;;;;;;5421958;26;20497;-70
2024/04/11 02:17:55;;;;;;;7.28;2.97;;;10.70;99.90;;;;;;5426752;26;20004;-69
2024/04/11 02:20:21;;;;;;;9.85;3.28;;;10.70;99.90;;;;;;5420660;26;19999;-69
2024/04/11 02:22:49;;;;;;;4.75;2.40;;;10.70;99.90;;;;;;5422887;26;20003;-70
2024/04/11 02:25:14;;;;;;;7.15;2.60;;;10.80;99.90;;;;;;5424862;26;20080;-68
2024/04/11 02:27:40;;;;;;;8.32;2.67;;;10.80;99.90;;;;;;5426733;26;20019;-68
2024/04/11 02:30:09;;;;;;;9.55;2.78;;;10.80;99.90;;;;;;5428576;26;20027;-68
2024/04/11 02:32:41;;;;;;;6.68;2.45;;;10.80;99.90;;;;;;5434681;26;20011;-69
2024/04/11 02:35:11;;;;;;;8.85;2.53;;;10.80;99.90;;;;;;5425220;26;21703;-68
2024/04/11 02:37:38;;;;;;;10.13;2.60;;;10.80;99.90;;;;;;5435573;26;20038;-69
2024/04/11 02:40:07;;;;;;;7.78;2.60;;;10.80;99.90;;;;;;5436003;26;20363;-69
2024/04/11 02:42:39;;;;;;;8.25;2.40;;;10.80;99.90;;;;;;5436932;26;19999;-68
2024/04/11 02:45:09;;;;;;;6.18;2.30;;;10.90;99.90;;;;;;5431257;26;19999;-68
2024/04/11 02:47:36;;;;;;;9.75;2.20;;;10.90;99.90;;;;;;5420283;26;20003;-69
2024/04/11 02:50:02;;;;;;;5.68;2.10;;;10.90;99.90;;;;;;5426135;26;20003;-69
2024/04/11 02:52:28;;;;;;;10.55;2.28;;;10.90;99.90;;;;;;5421445;26;20003;-68
2024/04/11 02:54:54;;;;;;;9.73;2.10;;;11.00;99.90;;;;;;5427445;26;20040;-69
2024/04/11 02:57:21;;;;;;;7.45;2.00;;;11.00;99.90;;;;;;5430471;26;20257;-70
2024/04/11 02:59:54;;;;;;;9.27;2.15;;;11.00;99.90;;;;;;5436171;26;20079;-68
2024/04/11 03:02:23;;;;;;;9.68;2.20;;;11.10;99.90;;;;;;5436074;26;20543;-68
2024/04/11 03:04:51;;;;;;;11.48;2.40;;;11.10;99.90;;;;;;5433940;26;20006;-69
2024/04/11 03:07:22;;;;;;;7.15;1.65;;;11.10;99.90;;;;;;5427638;26;20463;-69
2024/04/11 03:09:48;;;;;;;7.60;2.13;;;11.10;99.90;;;;;;5426181;26;20011;-68
2024/04/11 03:12:14;;;;;;;8.50;1.80;;;11.10;99.90;;;;;;5422632;26;20050;-69
2024/04/11 03:14:40;;;;;;;9.30;2.10;;;11.10;99.90;;;;;;5422220;26;20093;-69
2024/04/11 03:17:05;;;;;;;5.60;1.85;;;11.10;99.90;;;;;;5433568;26;20358;-69
2024/04/11 03:19:32;;;;;;;8.77;1.90;;;11.10;99.90;;;;;;5397833;26;20038;-70
2024/04/11 03:21:58;;;;;;;8.98;2.00;;;11.20;99.90;;;;;;5428754;26;20022;-69
2024/04/11 03:24:23;;;;;;;7.35;1.85;;;11.20;99.90;;;;;;5425890;26;20000;-69
2024/04/11 03:26:49;;;;;;;6.28;1.90;;;11.20;99.90;;;;;;5426005;26;20000;-68
2024/04/11 03:29:15;;;;;;;7.53;1.75;;;11.20;99.90;;;;;;5435997;26;20018;-68
2024/04/11 03:31:44;;;;;;;5.72;1.90;;;11.20;99.90;;;;;;5426729;26;19999;-68
2024/04/11 03:34:10;;;;;;;7.72;1.75;;;11.20;99.90;;;;;;5426715;26;20352;-68
2024/04/11 03:36:36;;;;;;;6.82;1.67;;;11.20;99.90;;;;;;5418836;26;20017;-69
2024/04/11 03:39:11;;;;;;;6.18;1.80;;;11.20;99.90;;;;;;5430812;26;20014;-68
2024/04/11 03:41:40;;;;;;;8.60;1.88;;;11.30;99.90;;;;;;5430201;26;19995;-69
2024/04/11 03:44:06;;;;;;;10.98;3.03;;;11.30;99.90;;;;;;5426480;26;20002;-69
2024/04/11 03:46:32;;;;;;;8.10;1.95;;;11.30;99.90;;;;;;5435165;26;20003;-68
2024/04/11 03:48:57;;;;;;;7.13;2.22;;;11.30;99.90;;;;;;5428304;26;20463;-68
2024/04/11 03:51:25;;;;;;;8.80;1.75;;;11.30;99.90;;;;;;5428902;26;20500;-68
2024/04/11 03:53:56;;;;;;;7.95;1.80;;;11.30;99.90;;;;;;5429573;26;20010;-69
2024/04/11 03:56:23;;;;;;;7.82;1.85;;;11.30;99.90;;;;;;5431326;26;20443;-68
2024/04/11 03:58:50;;;;;;;12.23;2.00;;;11.30;99.90;;;;;;5421583;26;20483;-68
2024/04/11 04:01:18;;;;;;;8.00;1.95;;;11.30;99.90;;;;;;5435012;26;20025;-68
2024/04/11 04:03:54;;;;;;;5.47;1.73;;;11.40;99.90;;;;;;5425955;26;20022;-69
2024/04/11 04:06:19;;;;;;;5.45;1.67;;;11.40;99.90;;;;;;5429173;26;20082;-68
2024/04/11 04:08:52;;;;;;;13.98;1.92;;;11.40;99.90;;;;;;5422559;26;20010;-69
2024/04/11 04:11:20;;;;;;;7.57;1.60;;;11.40;99.90;;;;;;5423090;26;19999;-69
2024/04/11 04:13:47;;;;;;;6.75;2.13;;;11.40;99.90;;;;;;5431110;26;19995;-68
2024/04/11 04:16:16;;;;;;;6.72;1.70;;;11.50;99.90;;;;;;5428066;26;20042;-70
2024/04/11 04:18:47;;;;;;;6.88;1.70;;;11.50;99.90;;;;;;5429075;26;20018;-69
2024/04/11 04:21:14;;;;;;;5.53;1.67;;;11.50;99.90;;;;;;5434429;26;20114;-69
2024/04/11 04:23:42;;;;;;;7.32;1.63;;;11.50;99.90;;;;;;5435067;26;20411;-69
2024/04/11 04:26:09;;;;;;;7.40;1.50;;;11.50;99.90;;;;;;5436212;26;19999;-70
2024/04/11 04:28:39;;;;;;;6.57;1.70;;;11.60;99.90;;;;;;5429740;26;20347;-69
2024/04/11 04:31:22;;;;;;;8.13;1.60;;;11.60;99.90;;;;;;5424646;26;20038;-69
2024/04/11 04:33:55;;;;;;;7.10;1.77;;;11.60;99.90;;;;;;5441369;26;19999;-67
2024/04/11 04:36:25;;;;;;;9.63;1.60;;;11.60;99.90;;;;;;5435650;26;19999;-67
2024/04/11 04:38:58;;;;;;;5.93;1.70;;;11.60;99.90;;;;;;5435379;26;20343;-67
2024/04/11 04:41:29;;;;;;;8.85;1.55;;;11.60;99.90;;;;;;5434540;26;20371;-67
2024/04/11 04:57:55;;;;;;;7.25;1.58;;;11.70;99.90;;;;;;5530370;25;20296;-76
2024/04/11 05:00:24;;;;;;;7.93;1.67;;;11.70;99.90;;;;;;5468191;26;20058;-76
2024/04/11 05:02:53;;;;;;;7.68;1.77;;;11.70;99.90;;;;;;5436339;26;19993;-76
2024/04/11 05:05:20;;;;;;;7.00;1.60;;;11.70;99.90;;;;;;5435318;26;20011;-75
2024/04/11 05:07:51;;;;;;;7.18;1.70;;;11.70;99.90;;;;;;5460763;26;20075;-76
2024/04/11 05:10:18;;;;;;;;;;;11.80;99.90;;;;;;5465752;26;19998;-76
2024/04/11 05:12:49;;;;;;;5.63;1.70;;;11.80;99.90;;;;;;5428877;26;19940;-75
2024/04/11 05:15:15;;;;;;;7.57;1.75;;;11.80;99.90;;;;;;5400876;26;20003;-76
2024/04/11 05:17:41;;;;;;;8.90;1.67;;;11.80;99.90;;;;;;5399716;26;20174;-75
2024/04/11 05:20:17;;;;;;;7.68;1.70;;;11.80;99.90;;;;;;5430673;26;20002;-75
2024/04/11 05:22:47;;;;;;;6.80;1.45;;;11.80;99.90;;;;;;5430126;26;20401;-75
2024/04/11 05:25:17;;;;;;;4.88;1.30;;;11.80;99.90;;;;;;5431748;26;19999;-77
2024/04/11 05:27:43;;;;;;;8.82;1.30;;;11.90;99.90;;;;;;5426891;26;19999;-76
2024/04/11 05:30:12;;;;;;;7.38;1.60;;;12.10;99.90;;;;;;5482116;25;20055;-75
2024/04/11 05:32:39;;;;;;;5.75;1.60;;;12.10;99.90;;;;;;5428372;26;20459;-76
2024/04/11 05:35:09;;;;;;;8.38;1.70;;;12.00;99.90;;;;;;5452542;26;20035;-76
2024/04/11 05:37:45;;;;;;;9.48;1.63;;;12.00;99.90;;;;;;5385786;26;20003;-75
2024/04/11 05:40:14;;;;;;;7.15;1.80;;;12.00;99.90;;;;;;5425685;26;20003;-75
2024/04/11 05:42:47;;;;;;;7.68;1.70;;;12.00;99.90;;;;;;5424405;26;20366;-76
2024/04/11 05:45:19;;;;;;;8.55;1.80;;;11.90;99.90;;;;;;5394672;26;20369;-77
2024/04/11 05:47:48;;;;;;;6.82;1.52;;;11.90;99.90;;;;;;5487008;25;20525;-77
2024/04/11 05:50:15;;;;;;;7.80;1.77;;;11.90;99.90;;;;;;5426439;26;20425;-76
2024/04/11 05:52:47;;;;;;;10.32;2.35;;;11.90;99.90;;;;;;5388977;26;20031;-76
2024/04/11 05:55:14;;;;;;;8.65;1.70;;;11.90;99.90;;;;;;5395364;26;20009;-76
2024/04/11 05:57:44;;;;;;;10.45;1.65;;;11.90;99.90;;;;;;5456123;26;20268;-76
2024/04/11 06:00:11;;;;;;;7.45;1.73;;;12.00;99.90;;;;;;5434233;26;20836;-75
2024/04/11 06:02:41;;;;;;;8.40;1.65;;;11.90;99.90;;;;;;5463247;26;20459;-75
2024/04/11 06:05:09;;;;;;;9.40;1.73;;;11.90;99.90;;;;;;5430683;26;19998;-75
2024/04/11 06:07:39;;;;;;;7.68;1.45;;;11.90;99.90;;;;;;5448030;26;20046;-75
2024/04/11 06:10:06;;;;;;;9.52;1.63;;;11.90;99.90;;;;;;5426038;26;20006;-75
2024/04/11 06:12:32;;;;;;;5.55;1.60;;;11.90;99.90;;;;;;5460189;26;20003;-75
2024/04/11 06:14:58;;;;;;;8.63;1.85;;;11.90;99.90;;;;;;5408353;26;19994;-76
2024/04/11 06:17:27;;;;;;;8.05;1.60;;;11.90;99.90;;;;;;5379841;26;20008;-77
2024/04/11 06:19:54;;;;;;;7.70;2.00;;;11.90;99.90;;;;;;5433220;26;20011;-77
2024/04/11 06:22:20;;;;;;;6.05;1.42;;;11.90;99.90;;;;;;5389148;26;20011;-78
2024/04/11 06:24:46;;;;;;;6.85;1.70;;;11.80;99.90;;;;;;5386472;26;20484;-78
2024/04/11 06:27:16;;;;;;;7.53;1.80;;;11.80;99.90;;;;;;5413277;26;20014;-79
2024/04/11 06:29:42;;;;;;;8.13;2.03;;;11.80;99.90;;;;;;5465245;26;20297;-78
2024/04/11 06:32:12;;;;;;;9.88;1.77;;;11.80;99.90;;;;;;5377602;26;20633;-79
2024/04/11 06:34:41;;;;;;;8.68;1.90;;;11.70;99.90;;;;;;5442700;26;19999;-79
2024/04/11 06:37:11;;;;;;;8.98;2.03;;;11.70;99.90;;;;;;5441911;26;19997;-78
2024/04/11 06:39:38;;;;;;;8.95;2.03;;;11.60;99.90;;;;;;5391140;26;20341;-78
2024/04/11 06:42:13;;;;;;;6.97;2.10;;;11.40;99.90;;;;;;5393093;26;20003;-78
2024/04/11 06:44:45;;;;;;;6.13;1.80;;;11.40;99.90;;;;;;5415694;26;20003;-78
2024/04/11 06:47:12;;;;;;;8.82;2.22;;;11.40;99.90;;;;;;5435788;26;20439;-78
2024/04/11 06:49:39;;;;;;;6.93;2.03;;;11.40;99.90;;;;;;5412670;26;19998;-78
2024/04/11 06:52:05;;;;;;;6.65;2.10;;;11.40;99.90;;;;;;5442094;26;19999;-78
2024/04/11 06:54:33;;;;;;;7.82;2.25;;;11.20;99.90;;;;;;5437204;26;20010;-78
2024/04/11 06:57:03;;;;;;;9.38;2.30;;;11.20;99.90;;;;;;5416792;26;20052;-78
2024/04/11 06:59:30;;;;;;;6.40;1.95;;;11.20;99.90;;;;;;5386221;26;20007;-78
2024/04/11 07:01:58;;;;;;;6.28;2.15;;;11.30;99.90;;;;;;5390315;26;20425;-78
2024/04/11 07:04:24;;;;;;;8.07;2.05;;;11.30;99.90;;;;;;5388383;26;20485;-78
2024/04/11 07:06:49;;;;;;;6.90;2.00;;;11.30;99.90;;;;;;5386439;26;20481;-78
2024/04/11 07:09:15;;;;;;;9.82;1.98;;;11.30;99.90;;;;;;5410217;26;20003;-78
2024/04/11 07:11:41;;;;;;;8.75;2.10;;;11.30;99.90;;;;;;5419762;26;20746;-78
2024/04/11 07:14:15;;;;;;;6.43;2.00;;;11.20;99.90;;;;;;5388929;26;21221;-78
2024/04/11 07:16:44;;;;;;;9.18;2.40;;;11.20;99.90;;;;;;5421522;26;20040;-78
2024/04/11 07:19:11;;;;;;;9.18;2.50;;;11.20;99.90;;;;;;5419014;26;20010;-78
2024/04/11 07:21:38;;;;;;;7.38;2.10;;;11.20;99.90;;;;;;5410582;26;20344;-78
2024/04/11 07:24:06;;;;;;;7.57;2.20;;;11.20;99.90;;;;;;5413714;26;20010;-78
2024/04/11 07:26:33;;;;;;;9.77;2.35;;;11.30;99.90;;;;;;5434674;26;20003;-78
2024/04/11 07:29:01;;;;;;;7.22;2.10;;;11.30;99.90;;;;;;5436789;26;20525;-77
2024/04/11 07:31:28;;;;;;;8.13;2.22;;;11.30;99.90;;;;;;5410964;26;20010;-78
2024/04/11 07:33:55;;;;;;;7.88;2.13;;;11.30;99.90;;;;;;5400621;26;20027;-77
2024/04/11 07:36:22;;;;;;;6.40;1.98;;;11.20;99.90;;;;;;5412061;26;20070;-77
2024/04/11 07:38:48;;;;;;;10.18;2.38;;;11.30;99.90;;;;;;5400189;26;20021;-77
2024/04/11 07:41:18;;;;;;;7.03;2.58;;;11.20;99.90;;;;;;5410874;26;20013;-77
2024/04/11 07:43:57;;;;;;;9.43;2.42;;;11.20;99.90;;;;;;5444679;26;20096;-77
2024/04/11 07:46:28;;;;;;;4.53;1.95;;;11.20;99.90;;;;;;5409314;26;20002;-78
2024/04/11 07:48:58;;;;;;;9.40;2.20;;;11.20;99.90;;;;;;5414716;26;20013;-78
2024/04/11 07:51:26;;;;;;;9.35;2.10;;;11.20;99.90;;;;;;5379355;26;19999;-77
2024/04/11 07:53:52;;;;;;;8.82;2.30;;;11.30;99.90;;;;;;5442886;26;20151;-78
2024/04/11 07:56:21;;;;;;;9.27;2.10;;;11.30;99.90;;;;;;5442871;26;20079;-78
2024/04/11 07:58:48;;;;;;;8.43;2.45;;;11.30;99.90;;;;;;5453210;26;20542;-77
2024/04/11 08:01:14;;;;;;;10.57;2.40;;;11.30;99.90;;;;;;5443437;26;20002;-78
2024/04/11 08:03:41;;;;;;;10.48;2.58;;;11.30;99.90;;;;;;5444952;26;20855;-77
2024/04/11 08:06:10;;;;;;;10.32;2.72;;;11.30;99.90;;;;;;5431642;26;20010;-77
2024/04/11 08:08:37;;;;;;;9.30;2.30;;;11.30;99.90;;;;;;5400722;26;20079;-77
2024/04/11 08:11:02;;;;;;;8.90;2.50;;;11.30;99.90;;;;;;5467353;26;20007;-77
2024/04/11 08:13:30;;;;;;;11.73;2.60;;;11.30;99.90;;;;;;5397911;26;20018;-77
2024/04/11 08:15:56;;;;;;;11.48;2.40;;;11.30;99.90;;;;;;5441067;26;20014;-77
2024/04/11 08:18:22;;;;;;;9.63;2.50;;;11.30;99.90;;;;;;5406480;26;20003;-77
2024/04/11 08:20:48;;;;;;;7.38;2.72;;;11.40;99.90;;;;;;5412092;26;20021;-77
2024/04/11 08:23:19;;;;;;;6.75;2.10;;;11.40;99.90;;;;;;5406958;26;20425;-77
2024/04/11 08:25:52;;;;;;;8.77;2.38;;;11.40;99.90;;;;;;5384993;26;20011;-77
2024/04/11 08:28:18;;;;;;;8.77;2.35;;;11.40;99.90;;;;;;5431826;26;20031;-78
2024/04/11 08:30:46;;;;;;;7.45;2.33;;;11.40;99.90;;;;;;5374849;26;20018;-78
2024/04/11 08:33:12;;;;;;;7.97;2.75;;;11.40;99.90;;;;;;5431548;26;20018;-77
2024/04/11 08:35:38;;;;;;;8.70;2.83;;;11.40;99.90;;;;;;5409506;26;21450;-77
2024/04/11 08:38:06;;;;;;;8.75;2.65;;;11.50;99.90;;;;;;5404858;26;20084;-77
2024/04/11 08:40:39;;;;;;;8.20;2.75;;;11.50;99.90;;;;;;5409809;26;20003;-77
2024/04/11 08:43:05;;;;;;;6.15;2.40;;;11.60;99.90;;;;;;5414251;26;19998;-77
2024/04/11 08:45:34;;;;;;;7.40;2.45;;;11.60;99.90;;;;;;5382850;26;19999;-76
2024/04/11 08:48:01;;;;;;;7.85;2.45;;;11.70;99.90;;;;;;5397965;26;19999;-76
2024/04/11 08:50:27;;;;;;;10.48;2.55;;;11.70;99.90;;;;;;5440369;26;20025;-77
2024/04/11 08:52:54;;;;;;;11.60;3.10;;;11.80;99.90;;;;;;5409088;26;20445;-77
2024/04/11 08:55:21;;;;;;;8.35;2.65;;;11.80;99.90;;;;;;5437073;26;20027;-77
2024/04/11 08:57:47;;;;;;;9.50;2.85;;;11.80;99.90;;;;;;5413045;26;20125;-76
2024/04/11 09:00:21;;;;;;;7.63;2.83;;;11.90;99.90;;;;;;5378418;26;20010;-77
2024/04/11 09:02:48;;;;;;;8.23;3.10;;;11.90;99.90;;;;;;5405396;26;20007;-77
2024/04/11 09:05:16;;;;;;;11.23;3.28;;;11.90;99.90;;;;;;5384195;26;20075;-77
2024/04/11 09:07:46;;;;;;;9.18;2.90;;;11.90;99.90;;;;;;5404198;26;20079;-76
2024/04/11 09:10:12;;;;;;;9.35;2.88;;;11.90;99.90;;;;;;5470370;26;20457;-76
2024/04/11 09:12:46;;;;;;;10.15;2.85;;;11.90;99.90;;;;;;5412331;26;20334;-76
2024/04/11 09:15:15;;;;;;;7.90;2.80;;;12.00;99.90;;;;;;5409250;26;20098;-77
2024/04/11 09:17:44;;;;;;;7.25;3.20;;;12.00;99.90;;;;;;5410131;26;20025;-76
2024/04/11 09:20:15;;;;;;;8.80;3.42;;;12.00;99.90;;;;;;5418552;26;19995;-76
2024/04/11 09:22:48;;;;;;;;;;;12.10;99.90;;;;;;5387647;26;19995;-76
2024/04/11 09:25:13;;;;;;;12.50;3.22;;;12.00;99.90;;;;;;5385811;26;19938;-76
2024/04/11 09:27:42;;;;;;;7.07;3.03;;;12.10;99.90;;;;;;5381003;26;20121;-76
2024/04/11 09:30:08;;;;;;;9.70;2.88;;;12.10;99.90;;;;;;5387455;26;20096;-76
2024/04/11 09:32:39;;;;;;;10.15;3.40;;;12.20;99.90;;;;;;5415350;26;20014;-76
2024/04/11 09:35:05;;;;;;;9.90;3.65;;;12.30;99.90;;;;;;5409885;26;20003;-77
2024/04/11 09:37:35;;;;;;;9.27;3.55;;;12.30;99.90;;;;;;5388886;26;19995;-76
2024/04/11 09:40:11;;;;;;;9.63;3.42;;;12.40;99.90;;;;;;5420490;26;20014;-76
2024/04/11 09:42:40;;;;;;;10.13;3.13;;;12.40;99.90;;;;;;5389704;26;20022;-76
2024/04/11 09:45:11;;;;;;;8.50;3.08;;;12.50;99.90;;;;;;5414861;26;19999;-76
2024/04/11 09:47:38;;;;;;;7.43;3.42;;;12.50;99.90;;;;;;5394915;26;20007;-76
2024/04/11 09:50:09;;;;;;;8.13;3.47;;;12.60;99.90;;;;;;5415942;26;20011;-76
2024/04/11 09:52:37;;;;;;;;;;;12.60;99.90;;;;;;5412613;26;20204;-76
2024/04/11 09:55:09;;;;;;;10.05;3.38;;;12.70;99.90;;;;;;5414774;26;19924;-76
2024/04/11 09:57:38;;;;;;;9.20;3.10;;;12.70;99.90;;;;;;5412601;26;20010;-76
2024/04/11 10:00:09;;;;;;;8.02;3.63;;;12.80;99.90;;;;;;5410377;26;20007;-76
2024/04/11 10:02:41;;;;;;;7.70;3.67;;;12.90;99.90;;;;;;5410155;26;20348;-76
2024/04/11 10:05:08;;;;;;;10.23;4.28;;;13.00;99.90;;;;;;5442516;26;20408;-76
2024/04/11 10:07:41;;;;;;;9.75;3.83;;;13.00;99.90;;;;;;5413886;26;20039;-77
2024/04/11 10:10:30;;;;;;;9.95;4.28;;;13.00;99.90;;;;;;5444685;26;20356;-77
2024/04/11 10:13:05;;;;;;;7.95;3.85;;;13.10;99.90;;;;;;5388389;26;20014;-76
2024/04/11 10:15:33;;;;;;;8.68;3.83;;;13.10;99.90;;;;;;5410774;26;20003;-78
2024/04/11 10:18:11;;;;;;;9.90;4.13;;;13.20;99.90;;;;;;5387813;26;20022;-77
2024/04/11 10:21:01;;;;;;;15.05;4.35;;;13.30;99.90;;;;;;5441339;26;19995;-77
2024/04/11 10:23:29;;;;;;;10.13;4.40;;;13.30;99.90;;;;;;5410052;26;19999;-77
2024/04/11 10:25:59;;;;;;;9.75;4.63;;;13.30;99.90;;;;;;5442031;26;20012;-77
2024/04/11 10:28:37;;;;;;;;;;;13.40;99.90;;;;;;5412136;26;19995;-77
2024/04/11 10:31:08;;;;;;;10.65;4.57;;;13.40;99.90;;;;;;5413929;26;19940;-77
2024/04/11 10:33:44;;;;;;;;;;;13.50;99.90;;;;;;5437936;26;20072;-77
2024/04/11 10:36:13;;;;;;;10.50;4.28;;;13.50;99.90;;;;;;5441902;26;19924;-77
2024/04/11 10:38:41;;;;;;;10.90;4.78;;;13.60;99.90;;;;;;5383456;26;20014;-76
2024/04/11 10:41:08;;;;;;;10.25;4.40;;;13.60;99.90;;;;;;5475725;26;20482;-77
2024/04/11 10:43:36;;;;;;;8.48;4.35;;;13.60;99.90;;;;;;5415277;26;20366;-77
2024/04/11 10:46:05;;;;;;;9.20;4.50;;;13.70;99.90;;;;;;5410143;26;19999;-77
2024/04/11 10:48:34;;;;;;;11.00;4.32;;;13.80;99.90;;;;;;5396899;21;20024;-78
2024/04/11 10:51:08;;;;;;;8.35;4.50;;;13.90;99.90;;;;;;5335170;26;20015;-79
2024/04/11 10:53:36;;;;;;;;;;;13.90;99.90;;;;;;5337239;26;20008;-78
2024/04/11 10:56:20;;;;;;;8.93;4.28;;;13.90;99.90;;;;;;5309061;26;19942;-79
2024/04/11 10:58:47;;;;;;;10.05;4.50;;;14.00;99.90;;;;;;5309622;26;20001;-78
2024/04/11 11:01:17;;;;;;;11.20;4.70;;;14.10;99.90;;;;;;5277884;26;20092;-79
2024/04/11 11:06:24;;;;;;;11.00;4.82;;;14.10;99.90;;;;;;5320071;26;20048;-79
2024/04/11 11:09:10;;;;;;;10.07;4.57;;;14.10;99.90;;;;;;5309866;26;20013;-79
2024/04/11 11:11:41;;;;;;;9.32;4.68;;;14.10;99.90;;;;;;5317786;26;20020;-78
2024/04/11 11:14:14;;;;;;;10.63;4.35;;;14.10;99.90;;;;;;5312270;26;20003;-79
2024/04/11 11:16:43;;;;;;;9.52;4.80;;;14.10;99.90;;;;;;5309198;26;20016;-79
2024/04/11 11:19:12;;;;;;;7.28;2.42;;;14.10;99.90;;;;;;5314662;26;20089;-81
2024/04/11 11:21:42;;;;;;;7.30;3.45;;;14.20;99.90;;;;;;5294024;26;20001;-81
2024/04/11 11:24:13;;;;;;;12.40;4.80;;;14.60;99.90;;;;;;5311290;26;20025;-81
2024/04/11 11:26:46;;;;;;;8.35;4.35;;;14.80;99.90;;;;;;5314349;26;20001;-80
2024/04/11 11:29:20;;;;;;;8.50;4.72;;;14.90;99.90;;;;;;5319233;26;20014;-80
2024/04/11 11:31:50;;;;;;;6.97;4.70;;;14.90;99.90;;;;;;5291511;26;20526;-81
2024/04/11 11:34:17;;;;;;;10.85;4.68;;;14.80;99.90;;;;;;5319729;26;20482;-80
2024/04/11 11:36:47;;;;;;;10.52;4.60;;;14.80;99.90;;;;;;5311863;26;20002;-80
2024/04/11 11:39:19;;;;;;;8.45;4.75;;;14.70;99.90;;;;;;5295548;26;20466;-80
2024/04/11 11:41:49;;;;;;;11.68;5.03;;;14.80;99.90;;;;;;5307055;26;20387;-80
2024/04/11 11:44:18;;;;;;;10.13;5.30;;;14.80;99.90;;;;;;5332913;26;20437;-80
2024/04/11 11:46:49;;;;;;;8.07;4.78;;;14.80;99.90;;;;;;5315701;26;20339;-80
2024/04/11 11:49:17;;;;;;;;;;;14.90;99.90;;;;;;5311873;26;20005;-79
2024/04/11 11:51:45;;;;;;;8.52;4.78;;;14.90;99.90;;;;;;5313622;26;20670;-79
2024/04/11 11:54:13;;;;;;;8.57;4.57;;;14.90;99.90;;;;;;5311058;26;20351;-79
2024/04/11 11:56:42;;;;;;;11.48;4.80;;;14.90;99.90;;;;;;5305656;26;20009;-79
2024/04/11 11:59:09;;;;;;;9.70;5.10;;;14.80;99.90;;;;;;5306258;26;20006;-80
2024/04/11 12:01:51;;;;;;;12.07;5.38;;;14.90;99.90;;;;;;5305661;26;20005;-79
2024/04/11 12:04:17;;;;;;;9.52;5.15;;;14.90;99.90;;;;;;5305057;26;20009;-79
2024/04/11 12:06:48;;;;;;;9.05;5.53;;;14.90;99.90;;;;;;5340071;26;20006;-79
2024/04/11 12:09:19;;;;;;;;;;;15.00;99.90;;;;;;5312906;26;20005;-80
2024/04/11 12:12:07;;;;;;;10.43;5.20;;;15.00;99.90;;;;;;5312564;26;19933;-79
2024/04/11 12:14:36;;;;;;;9.80;5.53;;;14.90;99.90;;;;;;5286292;26;20017;-79
2024/04/11 12:17:04;;;;;;;9.73;5.53;;;15.00;99.90;;;;;;5279943;26;20008;-80
2024/04/11 12:19:35;;;;;;;9.63;5.50;;;15.00;99.90;;;;;;5331179;26;20823;-79
2024/04/11 12:22:11;;;;;;;11.10;5.03;;;15.10;99.90;;;;;;5302615;26;20009;-79
2024/04/11 12:24:39;;;;;;;10.80;5.70;;;15.10;99.90;;;;;;5306467;26;20039;-80
2024/04/11 12:27:06;;;;;;;10.05;6.22;;;15.10;99.90;;;;;;5312535;26;20022;-80
2024/04/11 12:29:31;;;;;;;11.95;5.80;;;15.00;99.90;;;;;;5313152;26;20079;-81
2024/04/11 12:32:03;;;;;;;10.98;5.72;;;15.00;99.90;;;;;;5311901;26;20017;-80
2024/04/11 12:34:32;;;;;;;7.35;4.97;;;15.00;99.90;;;;;;5322006;26;20012;-80
2024/04/11 12:36:59;;;;;;;10.37;5.73;;;15.10;99.90;;;;;;5306066;26;20009;-80
2024/04/11 12:39:32;;;;;;;13.07;5.80;;;15.10;99.90;;;;;;5310253;26;20024;-79
2024/04/11 12:42:02;;;;;;;9.80;5.43;;;15.10;99.90;;;;;;5304164;26;20006;-80
2024/04/11 12:44:31;;;;;;;11.77;6.10;;;15.10;99.90;;;;;;5305810;26;20010;-80
2024/04/11 12:46:57;;;;;;;10.23;5.80;;;15.10;99.90;;;;;;5311672;26;20012;-80
2024/04/11 12:49:26;;;;;;;11.10;6.22;;;15.10;99.90;;;;;;5318141;26;20014;-79
2024/04/11 12:51:55;;;;;;;9.02;5.60;;;15.10;99.90;;;;;;5315982;26;20004;-79
2024/04/11 12:54:27;;;;;;;14.73;6.93;;;15.00;99.90;;;;;;5319128;26;20014;-79
2024/04/11 12:56:54;;;;;;;10.85;5.75;;;15.10;99.90;;;;;;5304446;26;20002;-80
2024/04/11 12:59:30;;;;;;;9.18;5.90;;;15.10;99.90;;;;;;5303223;26;20021;-80
2024/04/11 13:02:00;;;;;;;10.73;6.25;;;15.10;99.90;;;;;;5322183;26;20338;-80
2024/04/11 13:04:32;;;;;;;9.77;6.28;;;15.10;99.90;;;;;;5308943;26;20002;-79
2024/04/11 13:07:10;;;;;;;12.27;6.00;;;15.10;99.90;;;;;;5312990;26;20017;-79
2024/04/11 13:09:48;;;;;;;10.77;5.80;;;15.10;99.90;;;;;;5317340;26;20010;-80
2024/04/11 13:12:18;;;;;;;12.88;6.05;;;15.10;99.90;;;;;;5319386;26;20006;-80